CDT,Max TemperatureF,Mean TemperatureF,Min TemperatureF,Max Dew PointF,MeanDew PointF,Min DewpointF,Max Humidity, Mean Humidity, Min Humidity, Max Sea Level PressureIn, Mean Sea Level PressureIn, Min Sea Level PressureIn, Max VisibilityMiles, Mean VisibilityMiles, Min VisibilityMiles, Max Wind SpeedMPH, Mean Wind SpeedMPH, Max Gust SpeedMPH,PrecipitationIn, CloudCover, Events, WindDirDegrees
2013-4-1,77,63,51,56,51,41,100,77,29,30.11,30.02,29.95,10,6,0,8,2,,0.00,4,Fog,4
2013-4-2,80,67,55,49,46,42,69,50,28,30.12,30.06,29.99,10,10,10,12,6,20,0.00,1,,82
2013-4-3,59,52,46,46,43,35,93,81,48,30.08,30.03,29.99,10,7,2,15,8,25,0.46,8,Rain,50
2013-4-4,53,49,45,49,47,43,100,93,82,30.03,29.99,29.94,10,5,1,10,4,18,0.01,8,Rain,315
2013-4-5,66,55,44,48,44,40,100,78,40,30.19,30.11,30.04,10,7,2,10,7,,0.00,5,,327
2013-4-6,77,60,44,50,44,39,93,60,29,30.13,30.07,29.98,10,9,4,14,4,20,0.00,0,,174
2013-4-7,77,64,53,56,53,50,93,68,42,30.09,30.02,29.95,10,10,7,13,8,20,0.00,4,,165
2013-4-8,82,71,60,63,59,57,93,72,42,30.03,29.96,29.89,10,10,6,20,10,25,0.00,4,,167
2013-4-9,89,79,69,68,66,64,88,74,45,30.01,29.95,29.90,10,10,7,23,12,34,0.01,6,Rain,160
2013-4-10,84,78,71,67,66,64,83,72,53,29.97,29.89,29.77,10,10,8,20,14,31,0.00,6,,158
2013-4-11,73,60,48,68,57,44,97,89,78,29.87,29.75,29.66,10,7,0,22,10,29,1.37,7,Fog-Rain-Thunderstorm,291
2013-4-12,73,58,43,47,43,38,97,64,29,30.01,29.94,29.86,10,10,8,8,2,,0.00,0,,324
2013-4-13,80,64,48,48,46,45,93,58,31,30.05,29.98,29.89,10,10,9,9,2,,0.00,0,,79
2013-4-14,72,64,57,61,57,48,96,81,58,29.91,29.82,29.74,10,9,4,24,9,30,0.91,5,Rain,133
2013-4-15,84,70,57,70,62,56,100,83,51,29.97,29.89,29.81,10,6,1,13,6,18,0.00,5,,141
2013-4-16,86,78,73,70,69,67,88,75,56,30.08,30.02,29.95,10,9,5,17,12,24,0.00,5,,157
2013-4-17,89,79,70,69,67,65,93,72,48,30.08,30.00,29.91,10,9,3,20,9,24,0.00,2,,153
2013-4-18,84,69,53,68,63,52,97,81,56,29.91,29.83,29.68,10,8,2,23,14,36,0.74,7,Rain-Thunderstorm,212
2013-4-19,59,51,45,52,40,35,94,71,42,30.18,30.05,29.89,10,9,2,15,10,26,0.28,4,Rain,311
2013-4-20,69,54,39,43,38,31,93,58,30,30.27,30.21,30.14,10,10,10,10,2,,0.00,0,,57
2013-4-21,73,60,48,43,39,36,77,47,28,30.26,30.19,30.12,10,10,10,8,3,,0.00,0,,79
2013-4-22,79,63,48,56,47,41,90,57,31,30.15,30.09,30.01,10,10,10,10,3,17,0.00,0,,122
2013-4-23,82,72,62,64,61,56,87,72,52,30.09,30.02,29.93,10,10,8,16,10,22,0.00,6,,161
2013-4-24,69,60,51,64,54,44,100,87,67,30.26,30.12,29.95,10,7,2,18,10,31,0.72,8,Rain-Thunderstorm,334
2013-4-25,72,58,46,45,41,36,83,57,28,30.36,30.29,30.24,10,10,10,12,6,18,0.00,1,,42
2013-4-26,80,66,51,60,49,40,76,55,35,30.30,30.23,30.16,10,10,10,13,6,16,0.00,1,,138
2013-4-27,82,72,62,66,63,59,100,78,54,30.18,30.09,29.98,10,8,2,15,7,20,0.00,5,,186
2013-4-28,75,66,60,67,64,59,100,85,73,30.01,29.97,29.93,10,8,1,23,7,32,0.18,5,Rain,255
2013-4-29,82,70,60,63,61,57,100,83,47,30.01,29.95,29.88,10,5,0,8,2,,0.01,3,Fog,84
2013-4-30,82,71,60,65,62,58,93,77,49,29.93,29.90,29.86,10,9,7,12,5,,0.05,2,Rain,128